Portada
METAR-TAF:

METAR-TAF

Aeropuertos :

Aeropuerto de Jammu

Jammu, India

latitud: 32-41-21N, longitud: 74-50-15E, altitud: 314 m

METAR: falta

Hora: 12:47 (07:17 UTC)

Pronóstico

El informe se hizo hace 3 horas y 47 minutos, a las 03:30 UTC
Pronóstico válido del 08 a las 06 UTC al 08 a las 18 UTC
Viento 5 kt del suroeste
Visibilidad: 6000 m
Temporalmente
del 08 a las 09 UTC al 08 a las 13 UTC
Viento 10 kt del sureste
Visibilidad: 6000 m
Escasas nubes a una altura de 2500 ft
Nubes dispersas a una altura de 10000 ft

TAF: VIJU 080330Z 0806/0818 23005KT 6000 NSC TEMPO 0809/0813 13010KT 6000 FEW025 FEW030CB/TCU SCT100

Observaciones y pronósticos meteorológicos de más de 4000 aeropuertos (mensajes METAR y TAF).

Los puntos amarillos y rojos representan las estaciones disponibles.

Ponga el ratón en el punto deseado para ver el nombre de la estación.

Haga clic para ver las observaciones y los pronósticos meteorológicos.

Para cambiar el mapa : haga clic en los botones verdes con una cruz de color negro para hacer un zoom, en el botón verde con un guión para alejar o en las flechas verdes para mapas adyacentes.


METAR-TAF: